KTVL/TVL METAR and TAF weather

Enter ICAO airport designator
Station Type Date Time Source
KTVL METAR 2024/04/15 08:53 UTC NOAA

KTVL 150853Z AUTO 00000KT 10SM OVC029 01/M03 A3004 RMK AO2 SLP163 T00061028 55000


Station Type Date Time Source
KTVL Decoded METAR 2024/04/15 08:53 UTC NOAA

SOUTH LAKE TAHOE AIRPORT, CA, United States (KTVL) 38-53N 119-59W 1925M
Apr 15, 2024 - 04:53 AM EDT / 2024.04.15 0853 UTC
Wind: Calm:0
Visibility: 10 mile(s):0
Sky conditions: overcast
Temperature: 33.1 F (0.6 C)
Dew Point: 27.0 F (-2.8 C)
Relative Humidity: 77%
Pressure (altimeter): 30.04 in. Hg (1017 hPa)
Pressure tendency: 0.00 inches (0.0 hPa) lower than three hours ago
ob: KTVL 150853Z AUTO 00000KT 10SM OVC029 01/M03 A3004 RMK AO2 SLP163 T00061028 55000
cycle: 9

Station Type Date Time Source
KTVL TAF 2024/04/15 08:36 UTC NOAA